Kezdőlap
METAR-TAF:

METAR-TAF

Repülőterek :

Csebokszári, Oroszország

földrajzi szélesség: 56-05-24N, földrajzi hosszúság: 047-20-50E, magasság: 171 m

Jelenlegi meteorológiai megfigyelések

A jelentés 24 perccel ezelõtt készült, 23:00 UTC
Északnyugati szél 6 kt
Hőmérséklet 5°C
Páratartalom 87%
Légköri nyomás 1008 hPa
Látótávolság 10 km, vagy több
Szórványos felhőzet 3000 lábon

METAR: UWKS 242300Z 31003MPS 9999 SCT030 05/03 Q1008 R24/190060 NOSIG RMK QFE741

Idő: 02:24 (23:24 UTC)

Előrejelzés

A jelentés 3 órával és 30 perccel ezelõtt készült, 19:54 UTC
Az előrejelzés 24-én 21 óra UTC és 25-én 06 óra UTC között érvényes
Nyugati szél 6 kt széllökések: 16 kt
Látótávolság 10 km, vagy több
Szórványos felhőzet 3300 lábon

TAF: UWKS 241954Z 2421/2506 28003G08MPS 9999 SCT033 TX06/2421Z TN02/2503Z

Meteorológiai megfigyelések és előrejelzések több, mint 4000 repülőtéren (METAR és TAF jelentéseket).

A térképen piros és sárga pontok jelzik az elérhető meteorológiai állomásokat.

Mozgassa az egeret a pont fölött, hogy megjelenjen az állomás neve.

Azután kattintson az időjárási megfigyelések és előrejelzések megtekintéséhez.

A térkép megváltoztatása: kattintson a fekete keresztel jelölt zöld gombra ráközelítéshez, a vonallal jelölt zöld gombra távolításhoz, vagy a zöld nyilakra a szomszédos térképek eléréséhez.


METAR-TAF: